sensor_id;sensor_type;location;lat;lon;timestamp;P1;durP1;ratioP1;P2;durP2;ratioP2
11247;SDS011;5681;53.316;13.950;2023-03-21T00:01:32;13.82;;;10.35;;
11247;SDS011;5681;53.316;13.950;2023-03-21T00:03:59;15.55;;;10.65;;
11247;SDS011;5681;53.316;13.950;2023-03-21T00:06:26;11.75;;;9.85;;
11247;SDS011;5681;53.316;13.950;2023-03-21T00:08:53;13.95;;;10.45;;
11247;SDS011;5681;53.316;13.950;2023-03-21T00:11:19;12.32;;;9.77;;
11247;SDS011;5681;53.316;13.950;2023-03-21T00:13:45;14.18;;;9.55;;
11247;SDS011;5681;53.316;13.950;2023-03-21T00:16:13;14.90;;;9.93;;
11247;SDS011;5681;53.316;13.950;2023-03-21T00:18:41;14.85;;;10.30;;
11247;SDS011;5681;53.316;13.950;2023-03-21T00:21:10;12.60;;;10.27;;
11247;SDS011;5681;53.316;13.950;2023-03-21T00:23:40;13.27;;;10.43;;
11247;SDS011;5681;53.316;13.950;2023-03-21T00:26:07;12.38;;;10.35;;
11247;SDS011;5681;53.316;13.950;2023-03-21T00:28:34;12.32;;;10.07;;
11247;SDS011;5681;53.316;13.950;2023-03-21T00:31:00;11.52;;;9.95;;
11247;SDS011;5681;53.316;13.950;2023-03-21T00:33:27;13.25;;;9.95;;
11247;SDS011;5681;53.316;13.950;2023-03-21T00:35:54;12.35;;;9.27;;
11247;SDS011;5681;53.316;13.950;2023-03-21T00:38:22;12.30;;;10.07;;
11247;SDS011;5681;53.316;13.950;2023-03-21T00:40:50;13.93;;;9.85;;
11247;SDS011;5681;53.316;13.950;2023-03-21T00:43:16;13.03;;;10.27;;
11247;SDS011;5681;53.316;13.950;2023-03-21T00:45:47;13.30;;;10.10;;
11247;SDS011;5681;53.316;13.950;2023-03-21T00:48:13;14.38;;;10.43;;
11247;SDS011;5681;53.316;13.950;2023-03-21T00:50:40;12.30;;;9.98;;
11247;SDS011;5681;53.316;13.950;2023-03-21T00:53:09;12.63;;;10.20;;
11247;SDS011;5681;53.316;13.950;2023-03-21T00:55:35;12.33;;;9.57;;
11247;SDS011;5681;53.316;13.950;2023-03-21T00:58:03;11.90;;;9.93;;
11247;SDS011;5681;53.316;13.950;2023-03-21T01:00:30;15.32;;;10.02;;
11247;SDS011;5681;53.316;13.950;2023-03-21T01:02:57;14.15;;;10.32;;
11247;SDS011;5681;53.316;13.950;2023-03-21T01:05:32;12.40;;;10.60;;
11247;SDS011;5681;53.316;13.950;2023-03-21T01:08:17;12.83;;;10.80;;
11247;SDS011;5681;53.316;13.950;2023-03-21T01:10:44;14.32;;;10.77;;
11247;SDS011;5681;53.316;13.950;2023-03-21T01:13:14;15.35;;;10.65;;
11247;SDS011;5681;53.316;13.950;2023-03-21T01:15:42;16.23;;;10.40;;
11247;SDS011;5681;53.316;13.950;2023-03-21T01:18:10;13.73;;;10.50;;
11247;SDS011;5681;53.316;13.950;2023-03-21T01:20:38;12.90;;;10.27;;
11247;SDS011;5681;53.316;13.950;2023-03-21T01:23:05;15.68;;;10.77;;
11247;SDS011;5681;53.316;13.950;2023-03-21T01:25:31;14.57;;;10.97;;
11247;SDS011;5681;53.316;13.950;2023-03-21T01:27:58;15.40;;;10.65;;
11247;SDS011;5681;53.316;13.950;2023-03-21T01:30:26;15.32;;;11.63;;
11247;SDS011;5681;53.316;13.950;2023-03-21T01:32:52;13.18;;;10.68;;
11247;SDS011;5681;53.316;13.950;2023-03-21T01:35:18;16.02;;;11.05;;
11247;SDS011;5681;53.316;13.950;2023-03-21T01:37:45;16.70;;;11.40;;
11247;SDS011;5681;53.316;13.950;2023-03-21T01:40:12;14.73;;;10.77;;
11247;SDS011;5681;53.316;13.950;2023-03-21T01:42:41;13.30;;;11.90;;
11247;SDS011;5681;53.316;13.950;2023-03-21T01:48:09;14.87;;;11.37;;
11247;SDS011;5681;53.316;13.950;2023-03-21T01:50:35;18.10;;;11.45;;
11247;SDS011;5681;53.316;13.950;2023-03-21T01:53:02;17.23;;;12.83;;
11247;SDS011;5681;53.316;13.950;2023-03-21T01:55:28;14.77;;;11.23;;
11247;SDS011;5681;53.316;13.950;2023-03-21T01:57:56;14.30;;;11.60;;
11247;SDS011;5681;53.316;13.950;2023-03-21T02:00:24;16.90;;;11.70;;
11247;SDS011;5681;53.316;13.950;2023-03-21T02:02:53;18.13;;;11.70;;
11247;SDS011;5681;53.316;13.950;2023-03-21T02:05:24;14.00;;;11.07;;
11247;SDS011;5681;53.316;13.950;2023-03-21T02:07:52;16.90;;;11.80;;
11247;SDS011;5681;53.316;13.950;2023-03-21T02:10:19;16.58;;;12.43;;
11247;SDS011;5681;53.316;13.950;2023-03-21T02:12:46;16.27;;;11.95;;
11247;SDS011;5681;53.316;13.950;2023-03-21T02:15:12;15.27;;;12.70;;
11247;SDS011;5681;53.316;13.950;2023-03-21T02:17:41;16.30;;;11.40;;
11247;SDS011;5681;53.316;13.950;2023-03-21T02:20:14;17.17;;;11.40;;
11247;SDS011;5681;53.316;13.950;2023-03-21T02:23:02;17.08;;;11.40;;
11247;SDS011;5681;53.316;13.950;2023-03-21T02:25:40;14.07;;;11.13;;
11247;SDS011;5681;53.316;13.950;2023-03-21T02:28:15;19.47;;;12.13;;
11247;SDS011;5681;53.316;13.950;2023-03-21T02:31:00;15.83;;;11.63;;
11247;SDS011;5681;53.316;13.950;2023-03-21T02:39:17;15.77;;;12.67;;
11247;SDS011;5681;53.316;13.950;2023-03-21T02:41:49;17.13;;;13.07;;
11247;SDS011;5681;53.316;13.950;2023-03-21T02:44:18;17.37;;;13.13;;
11247;SDS011;5681;53.316;13.950;2023-03-21T02:46:48;19.42;;;13.70;;
11247;SDS011;5681;53.316;13.950;2023-03-21T02:49:18;18.90;;;13.30;;
11247;SDS011;5681;53.316;13.950;2023-03-21T02:51:47;15.27;;;13.15;;
11247;SDS011;5681;53.316;13.950;2023-03-21T02:54:17;18.52;;;13.18;;
11247;SDS011;5681;53.316;13.950;2023-03-21T02:56:45;16.23;;;12.45;;
11247;SDS011;5681;53.316;13.950;2023-03-21T02:59:13;18.37;;;13.40;;
11247;SDS011;5681;53.316;13.950;2023-03-21T03:01:40;17.55;;;12.82;;
11247;SDS011;5681;53.316;13.950;2023-03-21T03:04:16;19.08;;;12.88;;
11247;SDS011;5681;53.316;13.950;2023-03-21T03:06:45;20.13;;;12.82;;
11247;SDS011;5681;53.316;13.950;2023-03-21T03:09:23;18.35;;;13.45;;
11247;SDS011;5681;53.316;13.950;2023-03-21T03:11:55;16.30;;;12.40;;
11247;SDS011;5681;53.316;13.950;2023-03-21T03:14:32;17.43;;;13.00;;
11247;SDS011;5681;53.316;13.950;2023-03-21T03:17:09;15.77;;;13.03;;
11247;SDS011;5681;53.316;13.950;2023-03-21T03:19:43;19.20;;;13.73;;
11247;SDS011;5681;53.316;13.950;2023-03-21T03:22:20;16.17;;;12.90;;
11247;SDS011;5681;53.316;13.950;2023-03-21T03:24:50;18.55;;;13.07;;
11247;SDS011;5681;53.316;13.950;2023-03-21T03:27:21;19.15;;;12.63;;
11247;SDS011;5681;53.316;13.950;2023-03-21T03:29:49;20.57;;;13.13;;
11247;SDS011;5681;53.316;13.950;2023-03-21T03:32:17;15.07;;;12.13;;
11247;SDS011;5681;53.316;13.950;2023-03-21T03:34:48;17.93;;;12.13;;
11247;SDS011;5681;53.316;13.950;2023-03-21T03:37:22;17.00;;;11.67;;
11247;SDS011;5681;53.316;13.950;2023-03-21T03:39:52;21.87;;;13.30;;
11247;SDS011;5681;53.316;13.950;2023-03-21T03:42:23;16.38;;;12.35;;
11247;SDS011;5681;53.316;13.950;2023-03-21T03:44:51;20.57;;;12.53;;
11247;SDS011;5681;53.316;13.950;2023-03-21T03:47:19;18.03;;;13.17;;
11247;SDS011;5681;53.316;13.950;2023-03-21T03:49:48;17.17;;;12.27;;
11247;SDS011;5681;53.316;13.950;2023-03-21T03:52:19;16.37;;;11.97;;
11247;SDS011;5681;53.316;13.950;2023-03-21T03:54:48;16.23;;;12.13;;
11247;SDS011;5681;53.316;13.950;2023-03-21T03:57:16;17.40;;;12.83;;
11247;SDS011;5681;53.316;13.950;2023-03-21T03:59:43;18.03;;;12.57;;
11247;SDS011;5681;53.316;13.950;2023-03-21T04:02:10;20.50;;;12.53;;
11247;SDS011;5681;53.316;13.950;2023-03-21T04:04:37;17.00;;;12.13;;
11247;SDS011;5681;53.316;13.950;2023-03-21T04:07:03;16.87;;;12.40;;
11247;SDS011;5681;53.316;13.950;2023-03-21T04:09:31;18.23;;;12.33;;
11247;SDS011;5681;53.316;13.950;2023-03-21T04:11:58;24.03;;;12.30;;
11247;SDS011;5681;53.316;13.950;2023-03-21T04:14:24;18.80;;;11.97;;
11247;SDS011;5681;53.316;13.950;2023-03-21T04:16:51;16.37;;;13.30;;
11247;SDS011;5681;53.316;13.950;2023-03-21T04:19:18;16.97;;;12.13;;
11247;SDS011;5681;53.316;13.950;2023-03-21T04:21:45;18.00;;;11.67;;
11247;SDS011;5681;53.316;13.950;2023-03-21T04:24:11;18.93;;;12.57;;
11247;SDS011;5681;53.316;13.950;2023-03-21T04:26:39;13.27;;;11.33;;
11247;SDS011;5681;53.316;13.950;2023-03-21T04:29:06;12.67;;;11.03;;
11247;SDS011;5681;53.316;13.950;2023-03-21T04:31:32;15.37;;;11.70;;
11247;SDS011;5681;53.316;13.950;2023-03-21T04:34:00;14.77;;;10.98;;
11247;SDS011;5681;53.316;13.950;2023-03-21T04:36:27;16.93;;;11.40;;
11247;SDS011;5681;53.316;13.950;2023-03-21T04:39:02;18.80;;;11.70;;
11247;SDS011;5681;53.316;13.950;2023-03-21T04:41:33;17.42;;;11.70;;
11247;SDS011;5681;53.316;13.950;2023-03-21T04:44:02;15.70;;;11.93;;
11247;SDS011;5681;53.316;13.950;2023-03-21T04:46:28;15.20;;;11.63;;
11247;SDS011;5681;53.316;13.950;2023-03-21T04:48:55;19.70;;;12.23;;
11247;SDS011;5681;53.316;13.950;2023-03-21T04:51:21;17.17;;;11.85;;
11247;SDS011;5681;53.316;13.950;2023-03-21T04:53:47;15.07;;;11.33;;
11247;SDS011;5681;53.316;13.950;2023-03-21T04:56:16;17.27;;;11.90;;
11247;SDS011;5681;53.316;13.950;2023-03-21T04:58:42;13.03;;;11.57;;
11247;SDS011;5681;53.316;13.950;2023-03-21T05:01:10;18.10;;;11.98;;
11247;SDS011;5681;53.316;13.950;2023-03-21T05:03:38;20.57;;;12.00;;
11247;SDS011;5681;53.316;13.950;2023-03-21T05:06:05;17.80;;;11.27;;
11247;SDS011;5681;53.316;13.950;2023-03-21T05:08:33;19.15;;;12.27;;
11247;SDS011;5681;53.316;13.950;2023-03-21T05:10:59;15.43;;;11.90;;
11247;SDS011;5681;53.316;13.950;2023-03-21T05:13:26;17.07;;;11.40;;
11247;SDS011;5681;53.316;13.950;2023-03-21T05:15:52;17.07;;;11.57;;
11247;SDS011;5681;53.316;13.950;2023-03-21T05:18:20;18.98;;;12.20;;
11247;SDS011;5681;53.316;13.950;2023-03-21T05:20:49;17.83;;;12.27;;
11247;SDS011;5681;53.316;13.950;2023-03-21T05:23:18;21.47;;;11.30;;
11247;SDS011;5681;53.316;13.950;2023-03-21T05:25:44;17.63;;;12.13;;
11247;SDS011;5681;53.316;13.950;2023-03-21T05:28:11;16.27;;;11.93;;
11247;SDS011;5681;53.316;13.950;2023-03-21T05:30:37;18.07;;;11.87;;
11247;SDS011;5681;53.316;13.950;2023-03-21T05:33:04;15.97;;;11.87;;
11247;SDS011;5681;53.316;13.950;2023-03-21T05:35:31;18.93;;;11.90;;
11247;SDS011;5681;53.316;13.950;2023-03-21T05:37:58;15.90;;;11.77;;
11247;SDS011;5681;53.316;13.950;2023-03-21T05:40:24;16.63;;;11.97;;
11247;SDS011;5681;53.316;13.950;2023-03-21T05:42:50;18.73;;;11.90;;
11247;SDS011;5681;53.316;13.950;2023-03-21T05:45:17;18.67;;;12.07;;
11247;SDS011;5681;53.316;13.950;2023-03-21T05:47:43;19.60;;;12.10;;
11247;SDS011;5681;53.316;13.950;2023-03-21T05:50:10;17.93;;;12.70;;
11247;SDS011;5681;53.316;13.950;2023-03-21T05:52:38;20.27;;;14.13;;
11247;SDS011;5681;53.316;13.950;2023-03-21T05:55:05;21.97;;;14.93;;
11247;SDS011;5681;53.316;13.950;2023-03-21T05:57:32;20.03;;;14.33;;
11247;SDS011;5681;53.316;13.950;2023-03-21T06:00:03;20.90;;;14.00;;
11247;SDS011;5681;53.316;13.950;2023-03-21T06:02:30;18.17;;;12.70;;
11247;SDS011;5681;53.316;13.950;2023-03-21T06:04:56;19.37;;;12.77;;
11247;SDS011;5681;53.316;13.950;2023-03-21T06:07:23;15.47;;;11.67;;
11247;SDS011;5681;53.316;13.950;2023-03-21T06:09:50;16.97;;;11.90;;
11247;SDS011;5681;53.316;13.950;2023-03-21T06:12:17;15.37;;;11.57;;
11247;SDS011;5681;53.316;13.950;2023-03-21T06:14:43;18.65;;;12.25;;
11247;SDS011;5681;53.316;13.950;2023-03-21T06:17:10;16.37;;;11.27;;
11247;SDS011;5681;53.316;13.950;2023-03-21T06:19:37;18.13;;;11.40;;
11247;SDS011;5681;53.316;13.950;2023-03-21T06:22:03;17.37;;;12.03;;
11247;SDS011;5681;53.316;13.950;2023-03-21T06:24:30;14.70;;;11.00;;
11247;SDS011;5681;53.316;13.950;2023-03-21T06:26:57;14.27;;;11.97;;
11247;SDS011;5681;53.316;13.950;2023-03-21T06:29:24;18.60;;;15.03;;
11247;SDS011;5681;53.316;13.950;2023-03-21T06:31:50;22.57;;;16.57;;
11247;SDS011;5681;53.316;13.950;2023-03-21T06:34:17;15.50;;;10.80;;
11247;SDS011;5681;53.316;13.950;2023-03-21T06:36:43;19.87;;;16.77;;
11247;SDS011;5681;53.316;13.950;2023-03-21T06:39:10;15.23;;;11.40;;
11247;SDS011;5681;53.316;13.950;2023-03-21T06:41:37;18.00;;;11.25;;
11247;SDS011;5681;53.316;13.950;2023-03-21T06:44:05;14.77;;;11.50;;
11247;SDS011;5681;53.316;13.950;2023-03-21T06:46:31;22.80;;;11.93;;
11247;SDS011;5681;53.316;13.950;2023-03-21T06:48:58;45.25;;;35.65;;
11247;SDS011;5681;53.316;13.950;2023-03-21T06:51:24;15.40;;;11.00;;
11247;SDS011;5681;53.316;13.950;2023-03-21T06:53:50;13.93;;;10.73;;
11247;SDS011;5681;53.316;13.950;2023-03-21T06:56:17;16.90;;;11.57;;
11247;SDS011;5681;53.316;13.950;2023-03-21T06:58:43;37.70;;;25.65;;
11247;SDS011;5681;53.316;13.950;2023-03-21T07:01:11;18.58;;;12.98;;
11247;SDS011;5681;53.316;13.950;2023-03-21T07:03:38;18.17;;;11.73;;
11247;SDS011;5681;53.316;13.950;2023-03-21T07:06:05;16.88;;;12.82;;
11247;SDS011;5681;53.316;13.950;2023-03-21T07:08:35;17.20;;;13.25;;
11247;SDS011;5681;53.316;13.950;2023-03-21T07:11:02;17.58;;;13.27;;
11247;SDS011;5681;53.316;13.950;2023-03-21T07:13:28;18.70;;;12.83;;
11247;SDS011;5681;53.316;13.950;2023-03-21T07:15:55;19.33;;;13.77;;
11247;SDS011;5681;53.316;13.950;2023-03-21T07:18:23;34.47;;;23.70;;
11247;SDS011;5681;53.316;13.950;2023-03-21T07:20:50;18.10;;;14.45;;
11247;SDS011;5681;53.316;13.950;2023-03-21T07:23:16;23.95;;;16.15;;
11247;SDS011;5681;53.316;13.950;2023-03-21T07:25:43;23.33;;;14.90;;
11247;SDS011;5681;53.316;13.950;2023-03-21T07:28:09;27.25;;;13.35;;
11247;SDS011;5681;53.316;13.950;2023-03-21T07:30:36;18.80;;;13.55;;
11247;SDS011;5681;53.316;13.950;2023-03-21T07:33:02;23.73;;;14.63;;
11247;SDS011;5681;53.316;13.950;2023-03-21T07:35:30;24.63;;;21.02;;
11247;SDS011;5681;53.316;13.950;2023-03-21T07:37:56;23.80;;;16.13;;
11247;SDS011;5681;53.316;13.950;2023-03-21T07:40:22;21.60;;;15.63;;
11247;SDS011;5681;53.316;13.950;2023-03-21T07:42:49;25.42;;;17.60;;
11247;SDS011;5681;53.316;13.950;2023-03-21T07:45:15;30.63;;;20.65;;
11247;SDS011;5681;53.316;13.950;2023-03-21T07:47:45;37.40;;;24.42;;
11247;SDS011;5681;53.316;13.950;2023-03-21T07:50:12;24.67;;;17.00;;
11247;SDS011;5681;53.316;13.950;2023-03-21T07:52:40;23.00;;;17.58;;
11247;SDS011;5681;53.316;13.950;2023-03-21T07:55:07;26.95;;;17.63;;
11247;SDS011;5681;53.316;13.950;2023-03-21T07:57:34;31.90;;;22.65;;
11247;SDS011;5681;53.316;13.950;2023-03-21T08:00:00;46.03;;;24.08;;
11247;SDS011;5681;53.316;13.950;2023-03-21T08:02:28;26.88;;;19.38;;
11247;SDS011;5681;53.316;13.950;2023-03-21T08:04:54;25.83;;;17.80;;
11247;SDS011;5681;53.316;13.950;2023-03-21T08:07:21;24.17;;;18.75;;
11247;SDS011;5681;53.316;13.950;2023-03-21T08:09:48;31.45;;;18.95;;
11247;SDS011;5681;53.316;13.950;2023-03-21T08:12:15;23.55;;;18.58;;
11247;SDS011;5681;53.316;13.950;2023-03-21T08:14:41;22.80;;;18.52;;
11247;SDS011;5681;53.316;13.950;2023-03-21T08:17:08;22.88;;;19.00;;
11247;SDS011;5681;53.316;13.950;2023-03-21T08:19:35;24.67;;;17.77;;
11247;SDS011;5681;53.316;13.950;2023-03-21T08:22:02;25.70;;;19.42;;
11247;SDS011;5681;53.316;13.950;2023-03-21T08:24:29;31.02;;;19.80;;
11247;SDS011;5681;53.316;13.950;2023-03-21T08:26:57;29.38;;;20.98;;
11247;SDS011;5681;53.316;13.950;2023-03-21T08:29:23;26.42;;;20.92;;
11247;SDS011;5681;53.316;13.950;2023-03-21T08:31:50;30.40;;;20.50;;
11247;SDS011;5681;53.316;13.950;2023-03-21T08:34:16;25.67;;;20.95;;
11247;SDS011;5681;53.316;13.950;2023-03-21T08:36:43;26.38;;;22.17;;
11247;SDS011;5681;53.316;13.950;2023-03-21T08:39:11;35.03;;;23.48;;
11247;SDS011;5681;53.316;13.950;2023-03-21T08:41:37;28.90;;;23.00;;
11247;SDS011;5681;53.316;13.950;2023-03-21T08:44:05;35.50;;;24.90;;
11247;SDS011;5681;53.316;13.950;2023-03-21T08:46:31;30.77;;;24.10;;
11247;SDS011;5681;53.316;13.950;2023-03-21T08:48:58;29.90;;;25.27;;
11247;SDS011;5681;53.316;13.950;2023-03-21T08:51:24;34.85;;;28.95;;
11247;SDS011;5681;53.316;13.950;2023-03-21T08:53:51;39.05;;;31.60;;
11247;SDS011;5681;53.316;13.950;2023-03-21T08:56:17;28.95;;;25.25;;
11247;SDS011;5681;53.316;13.950;2023-03-21T08:58:43;30.27;;;25.27;;
11247;SDS011;5681;53.316;13.950;2023-03-21T09:01:12;28.77;;;24.67;;
11247;SDS011;5681;53.316;13.950;2023-03-21T09:03:39;29.40;;;23.58;;
11247;SDS011;5681;53.316;13.950;2023-03-21T09:06:06;42.97;;;24.80;;
11247;SDS011;5681;53.316;13.950;2023-03-21T09:08:35;39.28;;;25.00;;
11247;SDS011;5681;53.316;13.950;2023-03-21T09:11:01;25.48;;;22.63;;
11247;SDS011;5681;53.316;13.950;2023-03-21T09:13:27;24.98;;;21.95;;
11247;SDS011;5681;53.316;13.950;2023-03-21T09:15:54;28.38;;;22.90;;
11247;SDS011;5681;53.316;13.950;2023-03-21T09:18:23;28.90;;;22.42;;
11247;SDS011;5681;53.316;13.950;2023-03-21T09:21:09;27.20;;;22.35;;
11247;SDS011;5681;53.316;13.950;2023-03-21T09:23:36;26.20;;;21.88;;
11247;SDS011;5681;53.316;13.950;2023-03-21T09:26:03;26.75;;;22.65;;
11247;SDS011;5681;53.316;13.950;2023-03-21T09:28:30;27.40;;;22.65;;
11247;SDS011;5681;53.316;13.950;2023-03-21T09:30:57;29.75;;;21.35;;
11247;SDS011;5681;53.316;13.950;2023-03-21T09:33:25;25.83;;;20.65;;
11247;SDS011;5681;53.316;13.950;2023-03-21T09:35:53;26.92;;;21.77;;
11247;SDS011;5681;53.316;13.950;2023-03-21T09:38:19;25.02;;;20.95;;
11247;SDS011;5681;53.316;13.950;2023-03-21T09:40:50;24.80;;;20.92;;
11247;SDS011;5681;53.316;13.950;2023-03-21T09:43:31;25.73;;;22.00;;
11247;SDS011;5681;53.316;13.950;2023-03-21T09:46:15;25.25;;;22.30;;
11247;SDS011;5681;53.316;13.950;2023-03-21T09:48:48;24.55;;;20.95;;
11247;SDS011;5681;53.316;13.950;2023-03-21T09:51:17;24.35;;;20.27;;
11247;SDS011;5681;53.316;13.950;2023-03-21T09:53:45;22.83;;;20.38;;
11247;SDS011;5681;53.316;13.950;2023-03-21T09:56:14;27.13;;;21.63;;
11247;SDS011;5681;53.316;13.950;2023-03-21T09:58:42;23.90;;;20.15;;
11247;SDS011;5681;53.316;13.950;2023-03-21T10:01:11;22.05;;;19.85;;
11247;SDS011;5681;53.316;13.950;2023-03-21T10:03:47;22.20;;;19.83;;
11247;SDS011;5681;53.316;13.950;2023-03-21T10:06:15;22.65;;;20.25;;
11247;SDS011;5681;53.316;13.950;2023-03-21T10:08:42;26.25;;;21.17;;
11247;SDS011;5681;53.316;13.950;2023-03-21T10:11:11;30.60;;;21.60;;
11247;SDS011;5681;53.316;13.950;2023-03-21T10:13:40;24.10;;;21.25;;
11247;SDS011;5681;53.316;13.950;2023-03-21T10:16:09;24.55;;;21.25;;
11247;SDS011;5681;53.316;13.950;2023-03-21T10:18:38;31.08;;;22.27;;
11247;SDS011;5681;53.316;13.950;2023-03-21T10:21:09;26.17;;;21.35;;
11247;SDS011;5681;53.316;13.950;2023-03-21T10:23:38;23.77;;;20.33;;
11247;SDS011;5681;53.316;13.950;2023-03-21T10:26:05;24.55;;;19.90;;
11247;SDS011;5681;53.316;13.950;2023-03-21T10:28:33;22.48;;;18.85;;
11247;SDS011;5681;53.316;13.950;2023-03-21T10:31:02;20.92;;;18.52;;
11247;SDS011;5681;53.316;13.950;2023-03-21T10:33:31;20.30;;;18.08;;
11247;SDS011;5681;53.316;13.950;2023-03-21T10:36:01;19.75;;;17.60;;
11247;SDS011;5681;53.316;13.950;2023-03-21T10:38:30;19.67;;;16.15;;
11247;SDS011;5681;53.316;13.950;2023-03-21T10:40:57;19.27;;;17.17;;
11247;SDS011;5681;53.316;13.950;2023-03-21T10:43:31;20.23;;;17.88;;
11247;SDS011;5681;53.316;13.950;2023-03-21T10:46:05;18.35;;;15.73;;
11247;SDS011;5681;53.316;13.950;2023-03-21T10:48:34;17.17;;;15.48;;
11247;SDS011;5681;53.316;13.950;2023-03-21T10:51:01;18.73;;;16.73;;
11247;SDS011;5681;53.316;13.950;2023-03-21T10:53:34;18.23;;;15.77;;
11247;SDS011;5681;53.316;13.950;2023-03-21T10:56:05;18.73;;;16.83;;
11247;SDS011;5681;53.316;13.950;2023-03-21T10:58:34;19.63;;;17.45;;
11247;SDS011;5681;53.316;13.950;2023-03-21T11:01:04;15.35;;;13.68;;
11247;SDS011;5681;53.316;13.950;2023-03-21T11:03:34;16.55;;;13.60;;
11247;SDS011;5681;53.316;13.950;2023-03-21T11:06:03;16.42;;;14.57;;
11247;SDS011;5681;53.316;13.950;2023-03-21T11:08:37;18.08;;;16.23;;
11247;SDS011;5681;53.316;13.950;2023-03-21T11:11:04;19.33;;;14.30;;
11247;SDS011;5681;53.316;13.950;2023-03-21T11:13:32;17.23;;;15.57;;
11247;SDS011;5681;53.316;13.950;2023-03-21T11:16:03;17.70;;;15.75;;
11247;SDS011;5681;53.316;13.950;2023-03-21T11:18:32;17.58;;;15.68;;
11247;SDS011;5681;53.316;13.950;2023-03-21T11:21:05;17.80;;;15.38;;
11247;SDS011;5681;53.316;13.950;2023-03-21T11:23:34;17.23;;;15.43;;
11247;SDS011;5681;53.316;13.950;2023-03-21T11:26:07;16.30;;;13.80;;
11247;SDS011;5681;53.316;13.950;2023-03-21T11:28:35;16.27;;;14.50;;
11247;SDS011;5681;53.316;13.950;2023-03-21T11:31:03;16.13;;;14.40;;
11247;SDS011;5681;53.316;13.950;2023-03-21T11:33:31;16.88;;;15.18;;
11247;SDS011;5681;53.316;13.950;2023-03-21T11:36:01;12.52;;;11.23;;
11247;SDS011;5681;53.316;13.950;2023-03-21T11:38:30;13.85;;;12.52;;
11247;SDS011;5681;53.316;13.950;2023-03-21T11:40:59;14.95;;;13.30;;
11247;SDS011;5681;53.316;13.950;2023-03-21T11:43:27;18.05;;;13.43;;
11247;SDS011;5681;53.316;13.950;2023-03-21T11:45:57;15.52;;;13.98;;
11247;SDS011;5681;53.316;13.950;2023-03-21T11:48:25;15.48;;;13.88;;
11247;SDS011;5681;53.316;13.950;2023-03-21T11:50:54;14.00;;;12.52;;
11247;SDS011;5681;53.316;13.950;2023-03-21T11:53:27;15.93;;;12.95;;
11247;SDS011;5681;53.316;13.950;2023-03-21T11:56:08;12.55;;;11.25;;
11247;SDS011;5681;53.316;13.950;2023-03-21T11:58:44;13.05;;;11.63;;
11247;SDS011;5681;53.316;13.950;2023-03-21T12:01:15;13.65;;;11.63;;
11247;SDS011;5681;53.316;13.950;2023-03-21T12:03:46;13.27;;;12.02;;
11247;SDS011;5681;53.316;13.950;2023-03-21T12:06:23;12.40;;;11.20;;
11247;SDS011;5681;53.316;13.950;2023-03-21T12:08:55;16.60;;;10.98;;
11247;SDS011;5681;53.316;13.950;2023-03-21T12:11:32;11.00;;;10.00;;
11247;SDS011;5681;53.316;13.950;2023-03-21T12:14:04;11.25;;;10.02;;
11247;SDS011;5681;53.316;13.950;2023-03-21T12:16:40;10.10;;;9.05;;
11247;SDS011;5681;53.316;13.950;2023-03-21T12:19:15;12.80;;;9.85;;
11247;SDS011;5681;53.316;13.950;2023-03-21T12:22:00;13.05;;;9.45;;
11247;SDS011;5681;53.316;13.950;2023-03-21T12:24:31;12.10;;;10.70;;
11247;SDS011;5681;53.316;13.950;2023-03-21T12:27:02;11.68;;;10.27;;
11247;SDS011;5681;53.316;13.950;2023-03-21T12:29:44;14.20;;;12.63;;
11247;SDS011;5681;53.316;13.950;2023-03-21T12:32:31;9.57;;;8.63;;
11247;SDS011;5681;53.316;13.950;2023-03-21T12:35:07;10.20;;;9.00;;
11247;SDS011;5681;53.316;13.950;2023-03-21T12:37:40;24.58;;;20.77;;
11247;SDS011;5681;53.316;13.950;2023-03-21T12:40:16;10.02;;;9.13;;
11247;SDS011;5681;53.316;13.950;2023-03-21T12:42:53;10.95;;;9.93;;
11247;SDS011;5681;53.316;13.950;2023-03-21T12:45:39;14.30;;;12.98;;
11247;SDS011;5681;53.316;13.950;2023-03-21T12:48:12;12.18;;;11.00;;
11247;SDS011;5681;53.316;13.950;2023-03-21T12:50:44;11.30;;;10.10;;
11247;SDS011;5681;53.316;13.950;2023-03-21T12:53:19;12.68;;;10.52;;
11247;SDS011;5681;53.316;13.950;2023-03-21T12:56:00;12.32;;;11.13;;
11247;SDS011;5681;53.316;13.950;2023-03-21T12:58:29;11.98;;;10.70;;
11247;SDS011;5681;53.316;13.950;2023-03-21T13:00:56;12.15;;;10.00;;
11247;SDS011;5681;53.316;13.950;2023-03-21T13:03:25;16.75;;;12.63;;
11247;SDS011;5681;53.316;13.950;2023-03-21T13:05:56;12.63;;;11.32;;
11247;SDS011;5681;53.316;13.950;2023-03-21T13:08:24;12.77;;;11.48;;
11247;SDS011;5681;53.316;13.950;2023-03-21T13:10:53;16.77;;;13.50;;
11247;SDS011;5681;53.316;13.950;2023-03-21T13:13:21;14.43;;;13.02;;
11247;SDS011;5681;53.316;13.950;2023-03-21T13:15:54;16.90;;;13.85;;
11247;SDS011;5681;53.316;13.950;2023-03-21T13:18:37;16.10;;;14.50;;
11247;SDS011;5681;53.316;13.950;2023-03-21T13:21:10;17.13;;;15.43;;
11247;SDS011;5681;53.316;13.950;2023-03-21T13:23:40;17.70;;;15.75;;
11247;SDS011;5681;53.316;13.950;2023-03-21T13:26:30;18.17;;;16.38;;
11247;SDS011;5681;53.316;13.950;2023-03-21T13:28:57;17.77;;;15.95;;
11247;SDS011;5681;53.316;13.950;2023-03-21T13:31:25;18.35;;;16.55;;
11247;SDS011;5681;53.316;13.950;2023-03-21T13:33:52;18.67;;;16.52;;
11247;SDS011;5681;53.316;13.950;2023-03-21T13:36:21;19.85;;;16.05;;
11247;SDS011;5681;53.316;13.950;2023-03-21T13:38:50;18.70;;;16.80;;
11247;SDS011;5681;53.316;13.950;2023-03-21T13:41:18;19.77;;;16.98;;
11247;SDS011;5681;53.316;13.950;2023-03-21T13:43:50;18.75;;;16.92;;
11247;SDS011;5681;53.316;13.950;2023-03-21T13:49:14;19.50;;;17.40;;
11247;SDS011;5681;53.316;13.950;2023-03-21T13:51:50;20.65;;;17.95;;
11247;SDS011;5681;53.316;13.950;2023-03-21T13:54:20;20.38;;;18.20;;
11247;SDS011;5681;53.316;13.950;2023-03-21T13:56:49;20.15;;;18.05;;
11247;SDS011;5681;53.316;13.950;2023-03-21T13:59:18;20.10;;;17.90;;
11247;SDS011;5681;53.316;13.950;2023-03-21T14:02:03;20.73;;;17.92;;
11247;SDS011;5681;53.316;13.950;2023-03-21T14:04:39;20.35;;;18.35;;
11247;SDS011;5681;53.316;13.950;2023-03-21T14:07:06;19.23;;;17.38;;
11247;SDS011;5681;53.316;13.950;2023-03-21T14:09:37;20.33;;;18.17;;
11247;SDS011;5681;53.316;13.950;2023-03-21T14:12:06;21.05;;;18.40;;
11247;SDS011;5681;53.316;13.950;2023-03-21T14:14:36;20.55;;;18.50;;
11247;SDS011;5681;53.316;13.950;2023-03-21T14:17:10;20.70;;;18.42;;
11247;SDS011;5681;53.316;13.950;2023-03-21T14:19:38;22.40;;;18.15;;
11247;SDS011;5681;53.316;13.950;2023-03-21T14:22:08;20.67;;;18.63;;
11247;SDS011;5681;53.316;13.950;2023-03-21T14:24:35;19.77;;;17.88;;
11247;SDS011;5681;53.316;13.950;2023-03-21T14:27:02;19.48;;;17.48;;
11247;SDS011;5681;53.316;13.950;2023-03-21T14:29:30;20.15;;;18.02;;
11247;SDS011;5681;53.316;13.950;2023-03-21T14:31:58;20.10;;;18.00;;
11247;SDS011;5681;53.316;13.950;2023-03-21T14:34:25;20.77;;;18.58;;
11247;SDS011;5681;53.316;13.950;2023-03-21T14:36:54;20.67;;;18.50;;
11247;SDS011;5681;53.316;13.950;2023-03-21T14:39:21;23.20;;;19.42;;
11247;SDS011;5681;53.316;13.950;2023-03-21T14:41:49;20.17;;;18.20;;
11247;SDS011;5681;53.316;13.950;2023-03-21T14:44:18;20.23;;;18.13;;
11247;SDS011;5681;53.316;13.950;2023-03-21T14:46:52;19.80;;;17.73;;